createdAt,value
2022-12-18T00:01:49.504Z,100415.80
2022-12-18T00:04:22.639Z,100416.52
2022-12-18T00:06:51.330Z,100420.20
2022-12-18T00:09:19.087Z,100418.55
2022-12-18T00:11:46.765Z,100416.05
2022-12-18T00:14:14.763Z,100418.64
2022-12-18T00:16:47.273Z,100418.00
2022-12-18T00:19:15.471Z,100420.80
2022-12-18T00:21:44.564Z,100421.06
2022-12-18T00:24:12.782Z,100430.15
2022-12-18T00:26:40.604Z,100435.77
2022-12-18T00:29:11.852Z,100438.88
2022-12-18T00:31:39.527Z,100444.49
2022-12-18T00:34:07.348Z,100443.46
2022-12-18T00:36:35.407Z,100449.54
2022-12-18T00:39:05.305Z,100451.58
2022-12-18T00:41:51.819Z,100453.08
2022-12-18T00:44:20.165Z,100463.33
2022-12-18T00:46:48.374Z,100463.02
2022-12-18T00:49:18.836Z,100471.30
2022-12-18T00:51:48.140Z,100471.62
2022-12-18T00:54:16.230Z,100478.41
2022-12-18T00:56:50.968Z,100480.96
2022-12-18T00:59:19.595Z,100480.96
2022-12-18T01:01:47.981Z,100485.20
2022-12-18T01:04:16.324Z,100484.23
2022-12-18T01:06:46.768Z,100491.28
2022-12-18T01:09:14.494Z,100491.93
2022-12-18T01:11:42.219Z,100491.76
2022-12-18T01:14:11.228Z,100490.69
2022-12-18T01:16:39.052Z,100501.42
2022-12-18T01:19:07.033Z,100499.66
2022-12-18T01:21:34.793Z,100502.11
2022-12-18T01:24:05.777Z,100506.54
2022-12-18T01:26:33.748Z,100504.17
2022-12-18T01:29:01.466Z,100505.80
2022-12-18T01:31:32.662Z,100508.02
2022-12-18T01:34:05.371Z,100514.27
2022-12-18T01:36:36.093Z,100515.35
2022-12-18T01:39:10.330Z,100516.98
2022-12-18T01:41:56.842Z,100517.98
2022-12-18T01:45:00.416Z,100524.79
2022-12-18T01:47:49.437Z,100530.33
2022-12-18T01:50:32.404Z,100527.08
2022-12-18T01:53:07.996Z,100528.42
2022-12-18T01:55:46.535Z,100523.96
2022-12-18T01:58:14.452Z,100533.76
2022-12-18T02:00:42.861Z,100538.20
2022-12-18T02:03:10.784Z,100543.10
2022-12-18T02:05:49.113Z,100543.84
2022-12-18T02:08:24.524Z,100544.65
2022-12-18T02:11:14.169Z,100550.97
2022-12-18T02:13:55.531Z,100560.39
2022-12-18T02:17:11.954Z,100563.48
2022-12-18T02:20:07.528Z,100575.05
2022-12-18T02:23:01.153Z,100575.98
2022-12-18T02:25:34.957Z,100576.39
2022-12-18T02:28:05.524Z,100576.92
2022-12-18T02:30:35.115Z,100583.52
2022-12-18T02:33:05.903Z,100579.97
2022-12-18T02:35:36.329Z,100578.61
2022-12-18T02:38:05.232Z,100575.34
2022-12-18T02:40:35.804Z,100583.18
2022-12-18T02:43:12.532Z,100586.52
2022-12-18T02:45:55.332Z,100589.38
2022-12-18T02:48:34.270Z,100595.13
2022-12-18T02:51:12.122Z,100602.34
2022-12-18T02:53:53.790Z,100601.86
2022-12-18T02:56:27.844Z,100605.50
2022-12-18T02:59:15.269Z,100607.90
2022-12-18T03:01:59.728Z,100610.25
2022-12-18T03:04:57.511Z,100612.85
2022-12-18T03:07:39.040Z,100607.17
2022-12-18T03:10:10.418Z,100610.29
2022-12-18T03:12:48.884Z,100610.41
2022-12-18T03:15:24.103Z,100614.59
2022-12-18T03:18:02.625Z,100604.73
2022-12-18T03:20:33.932Z,100607.77
2022-12-18T03:23:12.180Z,100606.84
2022-12-18T03:25:42.101Z,100616.02
2022-12-18T03:28:14.398Z,100621.48
2022-12-18T03:30:45.091Z,100623.09
2022-12-18T03:33:47.730Z,100635.98
2022-12-18T03:36:16.096Z,100642.93
2022-12-18T03:38:43.855Z,100649.64
2022-12-18T03:41:20.782Z,100655.52
2022-12-18T03:44:16.953Z,100656.49
2022-12-18T03:47:23.841Z,100661.64
2022-12-18T03:50:00.325Z,100667.79
2022-12-18T03:52:53.176Z,100672.91
2022-12-18T03:55:22.524Z,100675.45
2022-12-18T03:57:54.923Z,100682.02
2022-12-18T04:00:22.783Z,100684.54
2022-12-18T04:02:58.127Z,100688.64
2022-12-18T04:05:34.801Z,100692.56
2022-12-18T04:08:03.324Z,100688.45
2022-12-18T04:10:31.640Z,100693.58
2022-12-18T04:13:00.056Z,100693.02
2022-12-18T04:15:28.651Z,100695.66
2022-12-18T04:17:56.877Z,100691.10
2022-12-18T04:20:25.282Z,100692.67
2022-12-18T04:22:53.871Z,100694.96
2022-12-18T04:25:21.845Z,100690.13
2022-12-18T04:28:06.246Z,100698.94
2022-12-18T04:30:34.775Z,100703.05
2022-12-18T04:33:02.548Z,100705.27
2022-12-18T04:35:32.330Z,100715.13
2022-12-18T04:38:00.227Z,100721.49
2022-12-18T04:40:28.324Z,100721.90
2022-12-18T04:42:56.557Z,100719.84
2022-12-18T04:45:24.278Z,100727.13
2022-12-18T04:47:51.883Z,100728.38
2022-12-18T04:50:19.543Z,100733.83
2022-12-18T04:52:47.141Z,100731.45
2022-12-18T04:55:14.985Z,100730.20
2022-12-18T04:57:42.656Z,100734.42
2022-12-18T05:00:11.076Z,100739.63
2022-12-18T05:02:39.304Z,100740.92
2022-12-18T05:05:08.538Z,100738.22
2022-12-18T05:07:36.615Z,100745.80
2022-12-18T05:10:05.615Z,100748.09
2022-12-18T05:12:33.772Z,100746.08
2022-12-18T05:15:01.408Z,100744.45
2022-12-18T05:17:29.060Z,100748.24
2022-12-18T05:19:56.665Z,100755.49
2022-12-18T05:22:24.330Z,100759.23
2022-12-18T05:24:51.958Z,100759.33
2022-12-18T05:27:21.649Z,100760.13
2022-12-18T05:29:49.270Z,100757.35
2022-12-18T05:32:16.903Z,100759.60
2022-12-18T05:34:44.555Z,100764.30
2022-12-18T05:37:12.204Z,100767.63
2022-12-18T05:39:39.841Z,100769.83
2022-12-18T05:42:07.466Z,100769.22
2022-12-18T05:44:35.096Z,100777.04
2022-12-18T05:47:02.760Z,100772.58
2022-12-18T05:49:30.557Z,100778.22
2022-12-18T05:51:58.188Z,100778.66
2022-12-18T05:54:28.561Z,100772.23
2022-12-18T05:56:56.299Z,100776.98
2022-12-18T05:59:24.976Z,100777.91
2022-12-18T06:01:52.741Z,100785.54
2022-12-18T06:04:20.568Z,100786.54
2022-12-18T06:06:48.170Z,100793.98
2022-12-18T06:09:15.779Z,100800.84
2022-12-18T06:11:43.418Z,100799.10
2022-12-18T06:14:11.041Z,100801.05
2022-12-18T06:16:38.731Z,100801.58
2022-12-18T06:19:06.903Z,100803.55
2022-12-18T06:21:35.474Z,100812.03
2022-12-18T06:24:03.904Z,100821.19
2022-12-18T06:26:31.712Z,100823.16
2022-12-18T06:28:59.378Z,100826.68
2022-12-18T06:31:27.249Z,100829.36
2022-12-18T06:33:55.015Z,100836.86
2022-12-18T06:36:22.772Z,100840.10
2022-12-18T06:38:50.391Z,100848.95
2022-12-18T06:41:20.566Z,100855.98
2022-12-18T06:43:48.250Z,100859.19
2022-12-18T06:46:16.240Z,100861.52
2022-12-18T06:48:43.913Z,100863.23
2022-12-18T06:51:11.515Z,100866.10
2022-12-18T06:53:40.270Z,100871.55
2022-12-18T06:56:10.569Z,100880.14
2022-12-18T06:58:39.834Z,100885.41
2022-12-18T07:01:10.105Z,100886.51
2022-12-18T07:03:40.012Z,100897.17
2022-12-18T07:06:17.535Z,100902.20
2022-12-18T07:08:46.207Z,100904.16
2022-12-18T07:11:14.093Z,100908.63
2022-12-18T07:13:42.528Z,100911.02
2022-12-18T07:16:22.606Z,100914.25
2022-12-18T07:18:54.872Z,100916.72
2022-12-18T07:21:23.460Z,100921.69
2022-12-18T07:23:51.391Z,100925.58
2022-12-18T07:26:20.955Z,100928.55
2022-12-18T07:28:49.468Z,100935.00
2022-12-18T07:31:22.174Z,100939.91
2022-12-18T07:33:51.401Z,100941.48
2022-12-18T07:36:19.567Z,100941.41
2022-12-18T07:38:51.192Z,100947.38
2022-12-18T07:41:19.726Z,100945.02
2022-12-18T07:43:47.771Z,100943.40
2022-12-18T07:46:16.645Z,100948.55
2022-12-18T07:48:49.904Z,100950.44
2022-12-18T07:51:19.229Z,100948.58
2022-12-18T07:53:49.566Z,100954.55
2022-12-18T07:56:30.008Z,100961.31
2022-12-18T07:58:59.440Z,100954.73
2022-12-18T08:01:27.805Z,100957.36
2022-12-18T08:03:56.002Z,100954.27
2022-12-18T08:06:24.499Z,100961.75
2022-12-18T08:08:54.071Z,100967.01
2022-12-18T08:11:22.514Z,100965.63
2022-12-18T08:13:50.196Z,100972.36
2022-12-18T08:16:18.606Z,100970.95
2022-12-18T08:18:46.983Z,100977.17
2022-12-18T08:21:25.202Z,100977.71
2022-12-18T08:23:54.910Z,100978.71
2022-12-18T08:26:23.063Z,100980.73
2022-12-18T08:28:51.868Z,100986.98
2022-12-18T08:31:20.265Z,100986.83
2022-12-18T08:33:53.197Z,100993.39
2022-12-18T08:36:22.490Z,100996.20
2022-12-18T08:38:50.115Z,100993.91
2022-12-18T08:41:19.119Z,100997.30
2022-12-18T08:44:06.203Z,101000.09
2022-12-18T08:46:39.639Z,101006.49
2022-12-18T08:49:08.477Z,101007.49
2022-12-18T08:51:37.004Z,101003.63
2022-12-18T08:54:06.555Z,101004.94
2022-12-18T08:56:35.137Z,101011.75
2022-12-18T08:59:03.709Z,101010.31
2022-12-18T09:01:34.428Z,101008.90
2022-12-18T09:04:03.169Z,101013.52
2022-12-18T09:06:30.923Z,101018.13
2022-12-18T09:08:58.528Z,101029.10
2022-12-18T09:11:27.759Z,101036.91
2022-12-18T09:13:57.228Z,101037.41
2022-12-18T09:16:31.512Z,101044.23
2022-12-18T09:19:00.864Z,101040.46
2022-12-18T09:21:31.378Z,101043.98
2022-12-18T09:24:00.921Z,101037.88
2022-12-18T09:26:28.809Z,101038.09
2022-12-18T09:28:57.528Z,101037.48
2022-12-18T09:31:25.749Z,101035.98
2022-12-18T09:33:53.472Z,101036.64
2022-12-18T09:36:21.101Z,101043.19
2022-12-18T09:38:49.549Z,101041.80
2022-12-18T09:41:34.938Z,101041.91
2022-12-18T09:44:10.421Z,101042.98
2022-12-18T09:46:44.119Z,101043.10
2022-12-18T09:49:17.649Z,101043.40
2022-12-18T09:51:56.982Z,101046.14
2022-12-18T09:54:34.749Z,101050.71
2022-12-18T09:57:02.581Z,101048.64
2022-12-18T09:59:37.732Z,101044.38
2022-12-18T10:02:24.092Z,101038.83
2022-12-18T10:05:16.390Z,101042.67
2022-12-18T10:08:03.733Z,101039.70
2022-12-18T10:10:43.733Z,101035.52
2022-12-18T10:13:20.063Z,101033.79
2022-12-18T10:16:09.175Z,101033.90
2022-12-18T10:19:03.614Z,101034.98
2022-12-18T10:21:37.148Z,101037.31
2022-12-18T10:24:22.212Z,101039.74
2022-12-18T10:26:49.958Z,101042.80
2022-12-18T10:29:18.026Z,101044.55
2022-12-18T10:31:45.750Z,101043.83
2022-12-18T10:34:13.686Z,101046.10
2022-12-18T10:36:41.619Z,101048.96
2022-12-18T10:39:35.757Z,101053.89
2022-12-18T10:42:18.352Z,101054.91
2022-12-18T10:44:46.796Z,101051.42
2022-12-18T10:47:19.424Z,101060.92
2022-12-18T10:49:50.454Z,101063.04
2022-12-18T10:52:24.412Z,101061.16
2022-12-18T10:55:04.138Z,101060.29
2022-12-18T10:57:36.777Z,101061.10
2022-12-18T11:00:26.494Z,101058.95
2022-12-18T11:02:55.772Z,101064.45
2022-12-18T11:05:28.895Z,101065.02
2022-12-18T11:07:57.425Z,101066.63
2022-12-18T11:10:37.576Z,101068.71
2022-12-18T11:13:26.341Z,101070.55
2022-12-18T11:15:54.253Z,101074.27
2022-12-18T11:18:28.885Z,101075.06
2022-12-18T11:21:10.683Z,101069.13
2022-12-18T11:23:47.542Z,101061.39
2022-12-18T11:26:15.396Z,101057.73
2022-12-18T11:28:45.462Z,101060.05
2022-12-18T11:31:26.838Z,101061.63
2022-12-18T11:34:31.937Z,101058.98
2022-12-18T11:37:01.400Z,101060.05
2022-12-18T11:39:41.347Z,101056.02
2022-12-18T11:42:12.452Z,101061.14
2022-12-18T11:44:57.280Z,101061.38
2022-12-18T11:47:35.313Z,101055.20
2022-12-18T11:50:18.948Z,101060.97
2022-12-18T11:52:47.755Z,101053.15
2022-12-18T11:55:52.043Z,101048.31
2022-12-18T11:58:44.286Z,101044.04
2022-12-18T12:01:18.398Z,101045.33
2022-12-18T12:04:10.743Z,101047.44
2022-12-18T12:06:43.589Z,101047.35
2022-12-18T12:09:30.350Z,101059.33
2022-12-18T12:12:11.085Z,101073.53
2022-12-18T12:15:07.818Z,101078.27
2022-12-18T12:17:43.794Z,101082.73
2022-12-18T12:20:23.684Z,101084.54
2022-12-18T12:23:12.383Z,101085.73
2022-12-18T12:25:45.987Z,101094.57
2022-12-18T12:28:26.013Z,101096.44
2022-12-18T12:31:06.476Z,101089.84
2022-12-18T12:33:49.423Z,101084.03
2022-12-18T12:36:26.952Z,101089.02
2022-12-18T12:39:01.018Z,101097.63
2022-12-18T12:41:51.125Z,101099.70
2022-12-18T12:44:25.128Z,101102.47
2022-12-18T12:46:56.599Z,101102.03
2022-12-18T12:49:27.559Z,101108.02
2022-12-18T12:52:04.515Z,101112.95
2022-12-18T12:54:34.040Z,101115.94
2022-12-18T12:57:23.875Z,101118.05
2022-12-18T13:00:09.670Z,101117.17
2022-12-18T13:03:01.757Z,101118.39
2022-12-18T13:05:47.292Z,101123.02
2022-12-18T13:08:31.165Z,101125.77
2022-12-18T13:11:20.519Z,101125.86
2022-12-18T13:13:55.196Z,101121.40
2022-12-18T13:16:25.734Z,101124.74
2022-12-18T13:18:58.955Z,101116.14
2022-12-18T13:21:31.662Z,101111.77
2022-12-18T13:24:29.264Z,101112.00
2022-12-18T13:26:57.180Z,101113.86
2022-12-18T13:29:46.252Z,101121.05
2022-12-18T13:32:26.435Z,101126.08
2022-12-18T13:35:27.726Z,101127.19
2022-12-18T13:37:56.337Z,101127.85
2022-12-18T13:40:39.853Z,101126.84
2022-12-18T13:43:22.734Z,101128.58
2022-12-18T13:46:01.665Z,101135.64
2022-12-18T13:48:33.255Z,101140.48
2022-12-18T13:51:09.514Z,101147.28
2022-12-18T13:53:48.491Z,101148.08
2022-12-18T13:56:23.407Z,101149.42
2022-12-18T13:59:12.916Z,101154.80
2022-12-18T14:01:55.934Z,101162.01
2022-12-18T14:04:29.843Z,101162.30
2022-12-18T14:07:06.024Z,101163.11
2022-12-18T14:09:50.391Z,101162.69
2022-12-18T14:12:39.836Z,101168.42
2022-12-18T14:15:27.974Z,101160.33
2022-12-18T14:18:13.615Z,101163.89
2022-12-18T14:20:50.650Z,101160.76
2022-12-18T14:23:32.566Z,101169.16
2022-12-18T14:26:05.737Z,101167.52
2022-12-18T14:28:34.110Z,101173.14
2022-12-18T14:31:01.765Z,101174.62
2022-12-18T14:33:29.519Z,101170.98
2022-12-18T14:36:01.606Z,101166.55
2022-12-18T14:38:31.284Z,101159.71
2022-12-18T14:41:05.751Z,101156.66
2022-12-18T14:43:36.139Z,101156.27
2022-12-18T14:46:24.346Z,101157.26
2022-12-18T14:48:52.156Z,101158.40
2022-12-18T14:51:22.112Z,101161.66
2022-12-18T14:53:55.043Z,101162.79
2022-12-18T14:56:25.714Z,101167.27
2022-12-18T14:59:04.733Z,101164.13
2022-12-18T15:01:38.087Z,101163.23
2022-12-18T15:04:30.775Z,101168.77
2022-12-18T15:07:21.371Z,101177.43
2022-12-18T15:10:09.092Z,101183.79
2022-12-18T15:12:44.175Z,101191.35
2022-12-18T15:15:34.081Z,101193.30
2022-12-18T15:18:23.887Z,101192.27
2022-12-18T15:20:56.951Z,101186.80
2022-12-18T15:23:36.805Z,101187.55
2022-12-18T15:26:09.989Z,101191.23
2022-12-18T15:28:40.509Z,101191.04
2022-12-18T15:31:15.903Z,101185.92
2022-12-18T15:34:01.757Z,101177.52
2022-12-18T15:36:31.017Z,101174.81
2022-12-18T15:39:05.150Z,101175.51
2022-12-18T15:41:36.615Z,101182.39
2022-12-18T15:44:23.859Z,101192.33
2022-12-18T15:46:51.479Z,101198.00
2022-12-18T15:49:19.303Z,101205.90
2022-12-18T15:51:50.400Z,101201.88
2022-12-18T15:54:18.051Z,101202.66
2022-12-18T15:57:04.488Z,101204.23
2022-12-18T15:59:32.126Z,101201.07
2022-12-18T16:01:59.869Z,101201.43
2022-12-18T16:04:28.284Z,101201.70
2022-12-18T16:07:14.423Z,101208.33
2022-12-18T16:09:43.143Z,101222.08
2022-12-18T16:12:17.392Z,101222.77
2022-12-18T16:14:45.182Z,101223.08
2022-12-18T16:17:14.683Z,101221.14
2022-12-18T16:19:42.368Z,101213.81
2022-12-18T16:22:28.863Z,101216.59
2022-12-18T16:24:57.315Z,101212.50
2022-12-18T16:27:25.661Z,101216.98
2022-12-18T16:29:53.384Z,101224.94
2022-12-18T16:32:22.149Z,101218.85
2022-12-18T16:34:50.997Z,101214.36
2022-12-18T16:37:18.648Z,101212.48
2022-12-18T16:39:46.338Z,101212.48
2022-12-18T16:42:20.780Z,101212.34
2022-12-18T16:44:50.020Z,101214.14
2022-12-18T16:47:18.783Z,101216.31
2022-12-18T16:49:46.622Z,101217.02
2022-12-18T16:52:14.564Z,101221.62
2022-12-18T16:54:42.269Z,101223.59
2022-12-18T16:57:15.053Z,101226.94
2022-12-18T16:59:42.699Z,101231.98
2022-12-18T17:02:15.853Z,101236.26
2022-12-18T17:04:45.399Z,101238.52
2022-12-18T17:07:13.965Z,101235.80
2022-12-18T17:09:41.845Z,101236.46
2022-12-18T17:12:09.639Z,101238.19
2022-12-18T17:14:37.544Z,101224.90
2022-12-18T17:17:23.032Z,101214.44
2022-12-18T17:19:52.419Z,101205.48
2022-12-18T17:22:23.066Z,101208.66
2022-12-18T17:24:50.719Z,101205.94
2022-12-18T17:27:18.336Z,101207.46
2022-12-18T17:29:48.447Z,101200.92
2022-12-18T17:32:17.738Z,101195.80
2022-12-18T17:34:45.598Z,101193.71
2022-12-18T17:37:13.335Z,101193.99
2022-12-18T17:39:41.984Z,101194.48
2022-12-18T17:42:10.666Z,101189.02
2022-12-18T17:44:43.972Z,101197.42
2022-12-18T17:47:13.116Z,101204.14
2022-12-18T17:49:41.066Z,101206.37
2022-12-18T17:52:08.797Z,101209.20
2022-12-18T17:54:39.645Z,101199.88
2022-12-18T17:57:08.076Z,101197.73
2022-12-18T17:59:35.948Z,101197.05
2022-12-18T18:02:03.787Z,101194.20
2022-12-18T18:04:32.448Z,101202.02
2022-12-18T18:07:00.182Z,101210.84
2022-12-18T18:09:27.944Z,101214.54
2022-12-18T18:12:15.762Z,101212.51
2022-12-18T18:14:43.696Z,101211.90
2022-12-18T18:17:11.457Z,101209.31
2022-12-18T18:19:39.075Z,101213.89
2022-12-18T18:22:08.153Z,101213.27
2022-12-18T18:24:35.773Z,101211.86
2022-12-18T18:27:03.524Z,101212.23
2022-12-18T18:29:31.339Z,101212.55
2022-12-18T18:31:59.364Z,101210.96
2022-12-18T18:34:29.340Z,101210.70
2022-12-18T18:36:57.064Z,101211.05
2022-12-18T18:39:24.921Z,101211.38
2022-12-18T18:41:52.850Z,101215.85
2022-12-18T18:44:24.839Z,101213.27
2022-12-18T18:46:57.973Z,101206.67
2022-12-18T18:49:27.696Z,101217.25
2022-12-18T18:51:57.392Z,101214.13
2022-12-18T18:54:25.518Z,101212.24
2022-12-18T18:57:19.464Z,101219.64
2022-12-18T18:59:41.582Z,101221.69
2022-12-18T19:02:12.496Z,101220.53
2022-12-18T19:04:45.829Z,101220.29
2022-12-18T19:07:28.144Z,101218.60
2022-12-18T19:10:04.625Z,101215.70
2022-12-18T19:12:53.349Z,101217.98
2022-12-18T19:15:22.815Z,101217.98
2022-12-18T19:17:50.939Z,101213.98
2022-12-18T19:20:19.215Z,101219.28
2022-12-18T19:22:50.732Z,101226.24
2022-12-18T19:25:40.722Z,101237.27
2022-12-18T19:28:15.872Z,101240.61
2022-12-18T19:30:58.645Z,101237.71
2022-12-18T19:33:42.772Z,101237.58
2022-12-18T19:36:14.656Z,101236.67
2022-12-18T19:38:45.454Z,101247.93
2022-12-18T19:41:14.790Z,101251.76
2022-12-18T19:43:43.192Z,101249.30
2022-12-18T19:46:14.316Z,101246.35
2022-12-18T19:48:43.246Z,101248.20
2022-12-18T19:51:18.748Z,101245.69
2022-12-18T19:53:46.937Z,101255.05
2022-12-18T19:56:16.863Z,101255.61
2022-12-18T19:58:45.384Z,101256.14
2022-12-18T20:01:16.438Z,101262.73
2022-12-18T20:03:45.075Z,101265.80
2022-12-18T20:06:30.278Z,101269.14
2022-12-18T20:09:01.191Z,101270.16
2022-12-18T20:11:30.601Z,101271.13
2022-12-18T20:13:58.373Z,101266.27
2022-12-18T20:16:26.178Z,101263.60
2022-12-18T20:18:54.471Z,101259.61
2022-12-18T20:21:23.091Z,101248.11
2022-12-18T20:23:51.089Z,101244.73
2022-12-18T20:26:19.383Z,101241.56
2022-12-18T20:28:47.148Z,101236.59
2022-12-18T20:31:14.802Z,101229.22
2022-12-18T20:33:43.086Z,101216.35
2022-12-18T20:36:22.620Z,101203.70
2022-12-18T20:38:58.071Z,101191.38
2022-12-18T20:41:37.233Z,101195.68
2022-12-18T20:44:21.541Z,101197.05
2022-12-18T20:46:56.981Z,101195.29
2022-12-18T20:49:26.328Z,101195.30
2022-12-18T20:51:56.407Z,101193.56
2022-12-18T20:54:25.893Z,101193.63
2022-12-18T20:56:53.878Z,101193.52
2022-12-18T20:59:23.024Z,101194.05
2022-12-18T21:01:53.669Z,101199.52
2022-12-18T21:04:22.103Z,101204.70
2022-12-18T21:06:55.727Z,101209.36
2022-12-18T21:09:28.403Z,101206.56
2022-12-18T21:12:24.102Z,101204.67
2022-12-18T21:14:51.876Z,101201.88
2022-12-18T21:17:19.497Z,101208.00
2022-12-18T21:19:47.097Z,101210.90
2022-12-18T21:22:15.812Z,101207.80
2022-12-18T21:24:43.473Z,101203.33
2022-12-18T21:27:13.019Z,101207.23
2022-12-18T21:29:46.967Z,101218.67
2022-12-18T21:32:14.629Z,101216.49
2022-12-18T21:34:46.230Z,101208.67
2022-12-18T21:37:15.900Z,101203.80
2022-12-18T21:39:43.514Z,101197.36
2022-12-18T21:42:33.242Z,101196.80
2022-12-18T21:45:00.885Z,101184.02
2022-12-18T21:47:28.490Z,101178.66
2022-12-18T21:49:56.161Z,101174.10
2022-12-18T21:52:26.251Z,101181.04
2022-12-18T21:55:07.909Z,101179.96
2022-12-18T21:57:38.837Z,101169.27
2022-12-18T22:00:08.052Z,101169.15
2022-12-18T22:02:44.546Z,101178.45
2022-12-18T22:05:12.619Z,101177.30
2022-12-18T22:07:40.531Z,101184.23
2022-12-18T22:10:08.509Z,101186.27
2022-12-18T22:12:43.733Z,101184.42
2022-12-18T22:15:21.234Z,101187.63
2022-12-18T22:17:57.590Z,101186.44
2022-12-18T22:20:30.015Z,101173.59
2022-12-18T22:22:58.987Z,101172.51
2022-12-18T22:25:29.730Z,101170.65
2022-12-18T22:28:15.949Z,101170.54
2022-12-18T22:30:43.968Z,101173.21
2022-12-18T22:33:11.896Z,101167.70
2022-12-18T22:35:39.641Z,101164.98
2022-12-18T22:38:07.620Z,101162.13
2022-12-18T22:40:35.334Z,101158.92
2022-12-18T22:43:03.241Z,101154.77
2022-12-18T22:45:30.856Z,101148.71
2022-12-18T22:48:00.324Z,101150.27
2022-12-18T22:50:27.977Z,101147.59
2022-12-18T22:52:55.612Z,101146.26
2022-12-18T22:55:23.199Z,101146.30
2022-12-18T22:57:50.943Z,101145.98
2022-12-18T23:00:21.981Z,101144.48
2022-12-18T23:02:59.347Z,101146.42
2022-12-18T23:05:30.508Z,101145.71
2022-12-18T23:07:58.698Z,101144.38
2022-12-18T23:10:27.439Z,101133.32
2022-12-18T23:12:55.269Z,101126.64
2022-12-18T23:15:28.351Z,101121.70
2022-12-18T23:17:59.739Z,101121.42
2022-12-18T23:20:28.230Z,101114.73
2022-12-18T23:22:55.864Z,101108.41
2022-12-18T23:25:24.676Z,101102.45
2022-12-18T23:27:52.353Z,101098.52
2022-12-18T23:30:19.980Z,101094.45
2022-12-18T23:32:48.012Z,101099.44
2022-12-18T23:35:16.950Z,101096.58
2022-12-18T23:38:00.636Z,101098.35
2022-12-18T23:40:29.604Z,101101.92
2022-12-18T23:42:59.085Z,101104.69
2022-12-18T23:45:26.876Z,101106.34
2022-12-18T23:47:54.513Z,101107.27
2022-12-18T23:50:27.723Z,101101.34
2022-12-18T23:53:02.536Z,101098.06
2022-12-18T23:55:43.850Z,101092.41
2022-12-18T23:58:19.712Z,101085.52
